sensor_id;sensor_type;location;lat;lon;timestamp;temperature;humidity
11087;DHT22;5597;47.588;9.642;2023-05-10T00:01:48;14.30;99.90
11087;DHT22;5597;47.588;9.642;2023-05-10T00:04:14;14.30;99.90
11087;DHT22;5597;47.588;9.642;2023-05-10T00:06:40;14.30;99.90
11087;DHT22;5597;47.588;9.642;2023-05-10T00:09:05;14.30;99.90
11087;DHT22;5597;47.588;9.642;2023-05-10T00:11:31;14.30;99.90
11087;DHT22;5597;47.588;9.642;2023-05-10T00:13:57;14.30;99.90
11087;DHT22;5597;47.588;9.642;2023-05-10T00:16:22;14.30;99.90
11087;DHT22;5597;47.588;9.642;2023-05-10T00:18:48;14.30;99.90
11087;DHT22;5597;47.588;9.642;2023-05-10T00:21:14;14.20;99.90
11087;DHT22;5597;47.588;9.642;2023-05-10T00:23:39;14.10;99.90
11087;DHT22;5597;47.588;9.642;2023-05-10T00:26:05;14.00;99.90
11087;DHT22;5597;47.588;9.642;2023-05-10T00:28:31;13.90;99.90
11087;DHT22;5597;47.588;9.642;2023-05-10T00:30:56;13.80;99.90
11087;DHT22;5597;47.588;9.642;2023-05-10T00:33:22;13.70;99.90
11087;DHT22;5597;47.588;9.642;2023-05-10T00:35:48;13.70;99.90
11087;DHT22;5597;47.588;9.642;2023-05-10T00:38:13;13.60;99.90
11087;DHT22;5597;47.588;9.642;2023-05-10T00:40:39;13.60;99.90
11087;DHT22;5597;47.588;9.642;2023-05-10T00:43:05;13.60;99.90
11087;DHT22;5597;47.588;9.642;2023-05-10T00:45:32;13.50;99.90
11087;DHT22;5597;47.588;9.642;2023-05-10T00:48:00;13.50;99.90
11087;DHT22;5597;47.588;9.642;2023-05-10T00:50:26;13.50;99.90
11087;DHT22;5597;47.588;9.642;2023-05-10T00:52:52;13.40;99.90
11087;DHT22;5597;47.588;9.642;2023-05-10T00:55:18;13.40;99.90
11087;DHT22;5597;47.588;9.642;2023-05-10T00:57:43;13.40;99.90
11087;DHT22;5597;47.588;9.642;2023-05-10T01:00:10;13.40;99.90
11087;DHT22;5597;47.588;9.642;2023-05-10T01:02:36;13.30;99.90
11087;DHT22;5597;47.588;9.642;2023-05-10T01:05:02;13.30;99.90
11087;DHT22;5597;47.588;9.642;2023-05-10T01:07:31;13.40;99.90
11087;DHT22;5597;47.588;9.642;2023-05-10T01:09:57;13.30;99.90
11087;DHT22;5597;47.588;9.642;2023-05-10T01:12:23;13.40;99.90
11087;DHT22;5597;47.588;9.642;2023-05-10T01:14:49;13.40;99.90
11087;DHT22;5597;47.588;9.642;2023-05-10T01:17:14;13.30;99.90
11087;DHT22;5597;47.588;9.642;2023-05-10T01:19:41;13.30;99.90
11087;DHT22;5597;47.588;9.642;2023-05-10T01:28:35;13.20;99.90
11087;DHT22;5597;47.588;9.642;2023-05-10T01:31:25;13.20;99.90
11087;DHT22;5597;47.588;9.642;2023-05-10T01:34:21;13.10;99.90
11087;DHT22;5597;47.588;9.642;2023-05-10T01:36:58;13.10;99.90
11087;DHT22;5597;47.588;9.642;2023-05-10T01:39:29;13.10;99.90
11087;DHT22;5597;47.588;9.642;2023-05-10T01:42:04;13.10;99.90
11087;DHT22;5597;47.588;9.642;2023-05-10T01:44:46;13.10;99.90
11087;DHT22;5597;47.588;9.642;2023-05-10T01:47:19;13.00;99.90
11087;DHT22;5597;47.588;9.642;2023-05-10T01:49:55;13.00;99.90
11087;DHT22;5597;47.588;9.642;2023-05-10T01:52:36;13.10;99.90
11087;DHT22;5597;47.588;9.642;2023-05-10T01:55:09;13.00;99.90
11087;DHT22;5597;47.588;9.642;2023-05-10T01:57:37;13.00;99.90
11087;DHT22;5597;47.588;9.642;2023-05-10T02:00:06;13.00;99.90
11087;DHT22;5597;47.588;9.642;2023-05-10T02:02:35;13.00;99.90
11087;DHT22;5597;47.588;9.642;2023-05-10T02:05:03;13.00;99.90
11087;DHT22;5597;47.588;9.642;2023-05-10T02:07:31;12.90;99.90
11087;DHT22;5597;47.588;9.642;2023-05-10T02:09:58;12.90;99.90
11087;DHT22;5597;47.588;9.642;2023-05-10T02:12:25;12.90;99.90
11087;DHT22;5597;47.588;9.642;2023-05-10T02:14:53;12.90;99.90
11087;DHT22;5597;47.588;9.642;2023-05-10T02:17:19;12.90;99.90
11087;DHT22;5597;47.588;9.642;2023-05-10T02:19:46;12.90;99.90
11087;DHT22;5597;47.588;9.642;2023-05-10T02:22:12;12.90;99.90
11087;DHT22;5597;47.588;9.642;2023-05-10T02:24:39;12.90;99.90
11087;DHT22;5597;47.588;9.642;2023-05-10T02:27:06;12.90;99.90
11087;DHT22;5597;47.588;9.642;2023-05-10T02:29:33;12.90;99.90
11087;DHT22;5597;47.588;9.642;2023-05-10T02:32:00;12.90;99.90
11087;DHT22;5597;47.588;9.642;2023-05-10T02:34:27;12.90;99.90
11087;DHT22;5597;47.588;9.642;2023-05-10T02:36:53;12.90;99.90
11087;DHT22;5597;47.588;9.642;2023-05-10T02:39:21;12.90;99.90
11087;DHT22;5597;47.588;9.642;2023-05-10T02:41:48;12.90;99.90
11087;DHT22;5597;47.588;9.642;2023-05-10T02:44:18;12.90;99.90
11087;DHT22;5597;47.588;9.642;2023-05-10T02:46:44;12.90;99.90
11087;DHT22;5597;47.588;9.642;2023-05-10T02:49:10;12.90;99.90
11087;DHT22;5597;47.588;9.642;2023-05-10T02:51:39;12.90;99.90
11087;DHT22;5597;47.588;9.642;2023-05-10T02:54:20;12.90;99.90
11087;DHT22;5597;47.588;9.642;2023-05-10T02:56:52;12.90;99.90
11087;DHT22;5597;47.588;9.642;2023-05-10T02:59:19;12.90;99.90
11087;DHT22;5597;47.588;9.642;2023-05-10T03:01:44;12.90;99.90
11087;DHT22;5597;47.588;9.642;2023-05-10T03:04:10;12.90;99.90
11087;DHT22;5597;47.588;9.642;2023-05-10T03:06:36;12.90;99.90
11087;DHT22;5597;47.588;9.642;2023-05-10T03:09:02;12.90;99.90
11087;DHT22;5597;47.588;9.642;2023-05-10T03:14:08;12.90;99.90
11087;DHT22;5597;47.588;9.642;2023-05-10T03:16:45;12.90;99.90
11087;DHT22;5597;47.588;9.642;2023-05-10T03:22:37;12.80;99.90
11087;DHT22;5597;47.588;9.642;2023-05-10T03:25:06;12.80;99.90
11087;DHT22;5597;47.588;9.642;2023-05-10T03:27:32;12.80;99.90
11087;DHT22;5597;47.588;9.642;2023-05-10T03:29:59;12.80;99.90
11087;DHT22;5597;47.588;9.642;2023-05-10T03:32:28;12.80;99.90
11087;DHT22;5597;47.588;9.642;2023-05-10T03:34:55;12.80;99.90
11087;DHT22;5597;47.588;9.642;2023-05-10T03:37:21;12.80;99.90
11087;DHT22;5597;47.588;9.642;2023-05-10T03:39:46;12.80;99.90
11087;DHT22;5597;47.588;9.642;2023-05-10T03:42:12;12.80;99.90
11087;DHT22;5597;47.588;9.642;2023-05-10T03:44:39;12.80;99.90
11087;DHT22;5597;47.588;9.642;2023-05-10T03:47:04;12.80;99.90
11087;DHT22;5597;47.588;9.642;2023-05-10T03:49:30;12.80;99.90
11087;DHT22;5597;47.588;9.642;2023-05-10T03:51:55;12.80;99.90
11087;DHT22;5597;47.588;9.642;2023-05-10T03:54:21;12.80;99.90
11087;DHT22;5597;47.588;9.642;2023-05-10T03:56:46;12.80;99.90
11087;DHT22;5597;47.588;9.642;2023-05-10T03:59:13;12.80;99.90
11087;DHT22;5597;47.588;9.642;2023-05-10T04:01:39;12.70;99.90
11087;DHT22;5597;47.588;9.642;2023-05-10T04:04:04;12.70;99.90
11087;DHT22;5597;47.588;9.642;2023-05-10T04:06:30;12.70;99.90
11087;DHT22;5597;47.588;9.642;2023-05-10T04:08:56;12.70;99.90
11087;DHT22;5597;47.588;9.642;2023-05-10T04:11:21;12.70;99.90
11087;DHT22;5597;47.588;9.642;2023-05-10T04:13:47;12.80;99.90
11087;DHT22;5597;47.588;9.642;2023-05-10T04:16:13;12.80;99.90
11087;DHT22;5597;47.588;9.642;2023-05-10T04:18:39;12.80;99.90
11087;DHT22;5597;47.588;9.642;2023-05-10T04:21:11;12.80;99.90
11087;DHT22;5597;47.588;9.642;2023-05-10T04:23:37;12.90;99.90
11087;DHT22;5597;47.588;9.642;2023-05-10T04:26:03;12.90;99.90
11087;DHT22;5597;47.588;9.642;2023-05-10T04:28:29;13.00;99.90
11087;DHT22;5597;47.588;9.642;2023-05-10T04:31:03;13.00;99.90
11087;DHT22;5597;47.588;9.642;2023-05-10T04:33:29;13.00;99.90
11087;DHT22;5597;47.588;9.642;2023-05-10T04:35:55;13.00;99.90
11087;DHT22;5597;47.588;9.642;2023-05-10T04:38:21;13.10;99.90
11087;DHT22;5597;47.588;9.642;2023-05-10T04:40:47;13.10;99.90
11087;DHT22;5597;47.588;9.642;2023-05-10T04:43:12;13.20;99.90
11087;DHT22;5597;47.588;9.642;2023-05-10T04:45:38;13.20;99.90
11087;DHT22;5597;47.588;9.642;2023-05-10T04:48:04;13.20;99.90
11087;DHT22;5597;47.588;9.642;2023-05-10T04:50:30;13.30;99.90
11087;DHT22;5597;47.588;9.642;2023-05-10T04:52:55;13.30;99.90
11087;DHT22;5597;47.588;9.642;2023-05-10T04:55:21;13.30;99.90
11087;DHT22;5597;47.588;9.642;2023-05-10T04:57:46;13.40;99.90
11087;DHT22;5597;47.588;9.642;2023-05-10T05:00:12;13.40;99.90
11087;DHT22;5597;47.588;9.642;2023-05-10T05:02:38;13.50;99.90
11087;DHT22;5597;47.588;9.642;2023-05-10T05:05:04;13.50;99.90
11087;DHT22;5597;47.588;9.642;2023-05-10T05:07:29;13.60;99.90
11087;DHT22;5597;47.588;9.642;2023-05-10T05:09:56;13.70;99.90
11087;DHT22;5597;47.588;9.642;2023-05-10T05:12:21;13.70;99.90
11087;DHT22;5597;47.588;9.642;2023-05-10T05:14:47;13.80;99.90
11087;DHT22;5597;47.588;9.642;2023-05-10T05:17:12;13.80;99.90
11087;DHT22;5597;47.588;9.642;2023-05-10T05:19:38;13.90;99.90
11087;DHT22;5597;47.588;9.642;2023-05-10T05:22:06;13.90;99.90
11087;DHT22;5597;47.588;9.642;2023-05-10T05:24:35;14.00;99.90
11087;DHT22;5597;47.588;9.642;2023-05-10T05:27:03;14.10;99.90
11087;DHT22;5597;47.588;9.642;2023-05-10T05:29:28;14.10;99.90
11087;DHT22;5597;47.588;9.642;2023-05-10T05:31:54;14.10;99.90
11087;DHT22;5597;47.588;9.642;2023-05-10T05:34:19;14.10;99.90
11087;DHT22;5597;47.588;9.642;2023-05-10T05:36:45;14.20;99.90
11087;DHT22;5597;47.588;9.642;2023-05-10T05:39:11;14.10;99.90
11087;DHT22;5597;47.588;9.642;2023-05-10T05:41:37;14.10;99.90
11087;DHT22;5597;47.588;9.642;2023-05-10T05:44:02;14.10;99.90
11087;DHT22;5597;47.588;9.642;2023-05-10T05:46:28;14.00;99.90
11087;DHT22;5597;47.588;9.642;2023-05-10T05:48:53;14.00;99.90
11087;DHT22;5597;47.588;9.642;2023-05-10T05:51:19;14.00;99.90
11087;DHT22;5597;47.588;9.642;2023-05-10T05:53:44;13.90;99.90
11087;DHT22;5597;47.588;9.642;2023-05-10T05:56:10;13.90;99.90
11087;DHT22;5597;47.588;9.642;2023-05-10T05:58:36;13.90;99.90
11087;DHT22;5597;47.588;9.642;2023-05-10T06:01:01;13.90;99.90
11087;DHT22;5597;47.588;9.642;2023-05-10T06:03:27;13.90;99.90
11087;DHT22;5597;47.588;9.642;2023-05-10T06:05:52;13.90;99.90
11087;DHT22;5597;47.588;9.642;2023-05-10T06:08:18;13.90;99.90
11087;DHT22;5597;47.588;9.642;2023-05-10T06:10:43;14.00;99.90
11087;DHT22;5597;47.588;9.642;2023-05-10T06:13:09;14.00;99.90
11087;DHT22;5597;47.588;9.642;2023-05-10T06:15:35;14.00;99.90
11087;DHT22;5597;47.588;9.642;2023-05-10T06:18:01;14.00;99.90
11087;DHT22;5597;47.588;9.642;2023-05-10T06:20:26;14.00;99.90
11087;DHT22;5597;47.588;9.642;2023-05-10T06:22:52;14.00;99.90
11087;DHT22;5597;47.588;9.642;2023-05-10T06:25:17;14.00;99.90
11087;DHT22;5597;47.588;9.642;2023-05-10T06:27:43;14.00;99.90
11087;DHT22;5597;47.588;9.642;2023-05-10T06:30:09;14.00;99.90
11087;DHT22;5597;47.588;9.642;2023-05-10T06:32:35;14.00;99.90
11087;DHT22;5597;47.588;9.642;2023-05-10T06:35:01;14.00;99.90
11087;DHT22;5597;47.588;9.642;2023-05-10T06:37:26;14.00;99.90
11087;DHT22;5597;47.588;9.642;2023-05-10T06:39:52;14.00;99.90
11087;DHT22;5597;47.588;9.642;2023-05-10T06:42:17;14.00;99.90
11087;DHT22;5597;47.588;9.642;2023-05-10T06:44:43;14.00;99.90
11087;DHT22;5597;47.588;9.642;2023-05-10T06:47:09;14.00;99.90
11087;DHT22;5597;47.588;9.642;2023-05-10T06:49:34;14.10;99.90
11087;DHT22;5597;47.588;9.642;2023-05-10T06:52:00;14.10;99.90
11087;DHT22;5597;47.588;9.642;2023-05-10T06:54:25;14.10;99.90
11087;DHT22;5597;47.588;9.642;2023-05-10T06:56:51;14.10;99.90
11087;DHT22;5597;47.588;9.642;2023-05-10T06:59:17;14.20;99.90
11087;DHT22;5597;47.588;9.642;2023-05-10T07:01:44;14.20;99.90
11087;DHT22;5597;47.588;9.642;2023-05-10T07:04:10;14.20;99.90
11087;DHT22;5597;47.588;9.642;2023-05-10T07:06:35;14.20;99.90
11087;DHT22;5597;47.588;9.642;2023-05-10T07:09:01;14.20;99.90
11087;DHT22;5597;47.588;9.642;2023-05-10T07:11:26;14.10;99.90
11087;DHT22;5597;47.588;9.642;2023-05-10T07:13:52;14.10;99.90
11087;DHT22;5597;47.588;9.642;2023-05-10T07:16:18;14.10;99.90
11087;DHT22;5597;47.588;9.642;2023-05-10T07:18:43;14.10;99.90
11087;DHT22;5597;47.588;9.642;2023-05-10T07:21:09;14.20;99.90
11087;DHT22;5597;47.588;9.642;2023-05-10T07:23:34;14.20;99.90
11087;DHT22;5597;47.588;9.642;2023-05-10T07:26:00;14.20;99.90
11087;DHT22;5597;47.588;9.642;2023-05-10T07:28:27;14.20;99.90
11087;DHT22;5597;47.588;9.642;2023-05-10T07:30:53;14.20;99.90
11087;DHT22;5597;47.588;9.642;2023-05-10T07:33:18;14.20;99.90
11087;DHT22;5597;47.588;9.642;2023-05-10T07:35:44;14.20;99.90
11087;DHT22;5597;47.588;9.642;2023-05-10T07:38:09;14.20;99.90
11087;DHT22;5597;47.588;9.642;2023-05-10T07:40:36;14.20;99.90
11087;DHT22;5597;47.588;9.642;2023-05-10T07:43:02;14.20;99.90
11087;DHT22;5597;47.588;9.642;2023-05-10T07:45:28;14.20;99.90
11087;DHT22;5597;47.588;9.642;2023-05-10T07:47:53;14.20;99.90
11087;DHT22;5597;47.588;9.642;2023-05-10T07:50:19;14.20;99.90
11087;DHT22;5597;47.588;9.642;2023-05-10T07:52:46;14.30;99.90
11087;DHT22;5597;47.588;9.642;2023-05-10T07:55:12;14.30;99.90
11087;DHT22;5597;47.588;9.642;2023-05-10T07:57:37;14.30;99.90
11087;DHT22;5597;47.588;9.642;2023-05-10T08:00:03;14.40;99.90
11087;DHT22;5597;47.588;9.642;2023-05-10T08:02:29;14.40;99.90
11087;DHT22;5597;47.588;9.642;2023-05-10T08:04:54;14.40;99.90
11087;DHT22;5597;47.588;9.642;2023-05-10T08:07:21;14.50;99.90
11087;DHT22;5597;47.588;9.642;2023-05-10T08:09:46;14.60;99.90
11087;DHT22;5597;47.588;9.642;2023-05-10T08:12:12;14.60;99.90
11087;DHT22;5597;47.588;9.642;2023-05-10T08:14:37;14.60;99.90
11087;DHT22;5597;47.588;9.642;2023-05-10T08:17:03;14.50;99.90
11087;DHT22;5597;47.588;9.642;2023-05-10T08:19:29;14.50;99.90
11087;DHT22;5597;47.588;9.642;2023-05-10T08:21:55;14.50;99.90
11087;DHT22;5597;47.588;9.642;2023-05-10T08:24:21;14.40;99.90
11087;DHT22;5597;47.588;9.642;2023-05-10T08:26:47;14.40;99.90
11087;DHT22;5597;47.588;9.642;2023-05-10T08:29:13;14.40;99.90
11087;DHT22;5597;47.588;9.642;2023-05-10T08:31:39;14.40;99.90
11087;DHT22;5597;47.588;9.642;2023-05-10T08:34:05;14.40;99.90
11087;DHT22;5597;47.588;9.642;2023-05-10T08:36:30;14.50;99.90
11087;DHT22;5597;47.588;9.642;2023-05-10T08:38:57;14.60;99.90
11087;DHT22;5597;47.588;9.642;2023-05-10T08:41:23;14.60;99.90
11087;DHT22;5597;47.588;9.642;2023-05-10T08:43:51;14.60;99.90
11087;DHT22;5597;47.588;9.642;2023-05-10T08:46:20;14.70;99.90
11087;DHT22;5597;47.588;9.642;2023-05-10T08:48:48;14.80;99.90
11087;DHT22;5597;47.588;9.642;2023-05-10T08:51:16;14.80;99.90
11087;DHT22;5597;47.588;9.642;2023-05-10T08:53:43;14.90;99.90
11087;DHT22;5597;47.588;9.642;2023-05-10T08:56:09;15.00;99.90
11087;DHT22;5597;47.588;9.642;2023-05-10T08:58:36;15.10;99.90
11087;DHT22;5597;47.588;9.642;2023-05-10T09:01:02;15.20;99.90
11087;DHT22;5597;47.588;9.642;2023-05-10T09:03:29;15.20;99.90
11087;DHT22;5597;47.588;9.642;2023-05-10T09:05:55;15.20;99.90
11087;DHT22;5597;47.588;9.642;2023-05-10T09:08:24;15.20;99.90
11087;DHT22;5597;47.588;9.642;2023-05-10T09:10:51;15.30;99.90
11087;DHT22;5597;47.588;9.642;2023-05-10T09:13:17;15.30;99.90
11087;DHT22;5597;47.588;9.642;2023-05-10T09:15:44;15.40;99.90
11087;DHT22;5597;47.588;9.642;2023-05-10T09:18:10;15.40;99.90
11087;DHT22;5597;47.588;9.642;2023-05-10T09:20:36;15.40;99.90
11087;DHT22;5597;47.588;9.642;2023-05-10T09:23:01;15.40;99.90
11087;DHT22;5597;47.588;9.642;2023-05-10T09:25:27;15.50;99.90
11087;DHT22;5597;47.588;9.642;2023-05-10T09:27:53;15.50;99.90
11087;DHT22;5597;47.588;9.642;2023-05-10T09:30:31;15.40;99.90
11087;DHT22;5597;47.588;9.642;2023-05-10T09:32:58;15.40;99.90
11087;DHT22;5597;47.588;9.642;2023-05-10T09:35:26;15.40;99.90
11087;DHT22;5597;47.588;9.642;2023-05-10T09:37:53;15.40;99.90
11087;DHT22;5597;47.588;9.642;2023-05-10T09:40:20;15.40;99.90
11087;DHT22;5597;47.588;9.642;2023-05-10T09:43:00;15.40;99.90
11087;DHT22;5597;47.588;9.642;2023-05-10T09:45:27;15.40;99.90
11087;DHT22;5597;47.588;9.642;2023-05-10T09:47:54;15.40;99.90
11087;DHT22;5597;47.588;9.642;2023-05-10T09:50:20;15.50;99.90
11087;DHT22;5597;47.588;9.642;2023-05-10T09:52:52;15.50;99.90
11087;DHT22;5597;47.588;9.642;2023-05-10T09:55:23;15.70;99.90
11087;DHT22;5597;47.588;9.642;2023-05-10T09:57:58;15.70;99.90
11087;DHT22;5597;47.588;9.642;2023-05-10T10:00:24;15.80;99.90
11087;DHT22;5597;47.588;9.642;2023-05-10T10:02:59;15.80;99.90
11087;DHT22;5597;47.588;9.642;2023-05-10T10:05:32;15.90;99.90
11087;DHT22;5597;47.588;9.642;2023-05-10T10:07:59;16.00;99.90
11087;DHT22;5597;47.588;9.642;2023-05-10T10:10:26;16.10;99.90
11087;DHT22;5597;47.588;9.642;2023-05-10T10:12:52;16.10;99.90
11087;DHT22;5597;47.588;9.642;2023-05-10T10:15:20;16.10;99.90
11087;DHT22;5597;47.588;9.642;2023-05-10T10:17:46;16.10;99.90
11087;DHT22;5597;47.588;9.642;2023-05-10T10:20:13;16.10;99.90
11087;DHT22;5597;47.588;9.642;2023-05-10T10:22:39;16.10;99.90
11087;DHT22;5597;47.588;9.642;2023-05-10T10:25:05;16.10;99.90
11087;DHT22;5597;47.588;9.642;2023-05-10T10:33:06;16.10;99.90
11087;DHT22;5597;47.588;9.642;2023-05-10T10:35:37;16.10;99.90
11087;DHT22;5597;47.588;9.642;2023-05-10T10:38:03;16.10;99.90
11087;DHT22;5597;47.588;9.642;2023-05-10T10:40:33;16.10;99.90
11087;DHT22;5597;47.588;9.642;2023-05-10T10:43:27;16.10;99.90
11087;DHT22;5597;47.588;9.642;2023-05-10T10:46:14;16.10;99.90
11087;DHT22;5597;47.588;9.642;2023-05-10T10:48:41;16.10;99.90
11087;DHT22;5597;47.588;9.642;2023-05-10T10:51:13;16.10;99.90
11087;DHT22;5597;47.588;9.642;2023-05-10T10:53:40;16.20;99.90
11087;DHT22;5597;47.588;9.642;2023-05-10T10:56:11;16.10;99.90
11087;DHT22;5597;47.588;9.642;2023-05-10T10:58:38;16.00;99.90
11087;DHT22;5597;47.588;9.642;2023-05-10T11:03:37;15.70;99.90
11087;DHT22;5597;47.588;9.642;2023-05-10T11:06:03;15.60;99.90
11087;DHT22;5597;47.588;9.642;2023-05-10T11:13:46;15.40;99.90
11087;DHT22;5597;47.588;9.642;2023-05-10T11:16:19;15.30;99.90
11087;DHT22;5597;47.588;9.642;2023-05-10T11:18:59;15.30;99.90
11087;DHT22;5597;47.588;9.642;2023-05-10T11:21:27;15.30;99.90
11087;DHT22;5597;47.588;9.642;2023-05-10T11:23:57;15.30;99.90
11087;DHT22;5597;47.588;9.642;2023-05-10T11:26:32;15.40;99.90
11087;DHT22;5597;47.588;9.642;2023-05-10T11:28:58;15.40;99.90
11087;DHT22;5597;47.588;9.642;2023-05-10T11:31:26;15.50;99.90
11087;DHT22;5597;47.588;9.642;2023-05-10T11:33:56;15.50;99.90
11087;DHT22;5597;47.588;9.642;2023-05-10T11:36:27;15.60;99.90
11087;DHT22;5597;47.588;9.642;2023-05-10T11:38:53;15.70;99.90
11087;DHT22;5597;47.588;9.642;2023-05-10T11:41:19;15.80;99.90
11087;DHT22;5597;47.588;9.642;2023-05-10T11:43:53;15.90;99.90
11087;DHT22;5597;47.588;9.642;2023-05-10T11:46:21;16.10;99.90
11087;DHT22;5597;47.588;9.642;2023-05-10T11:48:51;16.20;99.90
11087;DHT22;5597;47.588;9.642;2023-05-10T11:51:23;16.30;99.90
11087;DHT22;5597;47.588;9.642;2023-05-10T11:53:54;16.40;99.90
11087;DHT22;5597;47.588;9.642;2023-05-10T11:56:20;16.50;99.90
11087;DHT22;5597;47.588;9.642;2023-05-10T11:58:58;16.50;99.90
11087;DHT22;5597;47.588;9.642;2023-05-10T12:01:25;16.50;99.90
11087;DHT22;5597;47.588;9.642;2023-05-10T12:03:53;16.50;99.90
11087;DHT22;5597;47.588;9.642;2023-05-10T12:06:19;16.60;99.90
11087;DHT22;5597;47.588;9.642;2023-05-10T12:08:47;16.60;99.90
11087;DHT22;5597;47.588;9.642;2023-05-10T12:11:13;16.60;99.90
11087;DHT22;5597;47.588;9.642;2023-05-10T12:13:42;16.70;99.90
11087;DHT22;5597;47.588;9.642;2023-05-10T12:16:19;16.80;99.90
11087;DHT22;5597;47.588;9.642;2023-05-10T12:18:45;16.80;99.90
11087;DHT22;5597;47.588;9.642;2023-05-10T12:21:13;16.90;99.90
11087;DHT22;5597;47.588;9.642;2023-05-10T12:23:40;17.00;99.90
11087;DHT22;5597;47.588;9.642;2023-05-10T12:26:09;17.00;99.90
11087;DHT22;5597;47.588;9.642;2023-05-10T12:28:35;17.10;99.90
11087;DHT22;5597;47.588;9.642;2023-05-10T12:31:02;17.10;99.90
11087;DHT22;5597;47.588;9.642;2023-05-10T12:33:42;17.00;99.90
11087;DHT22;5597;47.588;9.642;2023-05-10T12:36:12;17.00;99.90
11087;DHT22;5597;47.588;9.642;2023-05-10T12:38:40;17.00;99.90
11087;DHT22;5597;47.588;9.642;2023-05-10T12:41:15;16.90;99.90
11087;DHT22;5597;47.588;9.642;2023-05-10T12:43:41;16.90;99.90
11087;DHT22;5597;47.588;9.642;2023-05-10T12:46:11;16.80;99.90
11087;DHT22;5597;47.588;9.642;2023-05-10T12:48:37;16.80;99.90
11087;DHT22;5597;47.588;9.642;2023-05-10T12:51:04;16.80;99.90
11087;DHT22;5597;47.588;9.642;2023-05-10T12:53:30;16.80;99.90
11087;DHT22;5597;47.588;9.642;2023-05-10T12:55:56;16.90;99.90
11087;DHT22;5597;47.588;9.642;2023-05-10T12:58:21;16.90;99.90
11087;DHT22;5597;47.588;9.642;2023-05-10T13:00:47;16.90;99.90
11087;DHT22;5597;47.588;9.642;2023-05-10T13:03:13;17.00;99.90
11087;DHT22;5597;47.588;9.642;2023-05-10T13:05:38;17.00;99.90
11087;DHT22;5597;47.588;9.642;2023-05-10T13:08:04;17.00;99.90
11087;DHT22;5597;47.588;9.642;2023-05-10T13:10:30;17.00;99.90
11087;DHT22;5597;47.588;9.642;2023-05-10T13:12:57;16.90;99.90
11087;DHT22;5597;47.588;9.642;2023-05-10T13:15:22;16.80;99.90
11087;DHT22;5597;47.588;9.642;2023-05-10T13:17:48;16.80;99.90
11087;DHT22;5597;47.588;9.642;2023-05-10T13:20:14;16.80;99.90
11087;DHT22;5597;47.588;9.642;2023-05-10T13:22:40;16.80;99.90
11087;DHT22;5597;47.588;9.642;2023-05-10T13:25:06;16.80;99.90
11087;DHT22;5597;47.588;9.642;2023-05-10T13:27:32;16.80;99.90
11087;DHT22;5597;47.588;9.642;2023-05-10T13:29:57;16.70;99.90
11087;DHT22;5597;47.588;9.642;2023-05-10T13:32:25;16.60;99.90
11087;DHT22;5597;47.588;9.642;2023-05-10T13:34:51;16.40;99.90
11087;DHT22;5597;47.588;9.642;2023-05-10T13:37:16;16.40;99.90
11087;DHT22;5597;47.588;9.642;2023-05-10T13:39:42;16.30;99.90
11087;DHT22;5597;47.588;9.642;2023-05-10T13:42:08;16.20;99.90
11087;DHT22;5597;47.588;9.642;2023-05-10T13:44:33;16.20;99.90
11087;DHT22;5597;47.588;9.642;2023-05-10T13:46:59;16.20;99.90
11087;DHT22;5597;47.588;9.642;2023-05-10T13:49:25;16.20;99.90
11087;DHT22;5597;47.588;9.642;2023-05-10T13:51:51;16.10;99.90
11087;DHT22;5597;47.588;9.642;2023-05-10T13:54:17;16.20;99.90
11087;DHT22;5597;47.588;9.642;2023-05-10T13:56:45;16.20;99.90
11087;DHT22;5597;47.588;9.642;2023-05-10T13:59:12;16.30;99.90
11087;DHT22;5597;47.588;9.642;2023-05-10T14:01:39;16.40;99.90
11087;DHT22;5597;47.588;9.642;2023-05-10T14:04:05;16.40;99.90
11087;DHT22;5597;47.588;9.642;2023-05-10T14:06:31;16.40;99.90
11087;DHT22;5597;47.588;9.642;2023-05-10T14:08:57;16.40;99.90
11087;DHT22;5597;47.588;9.642;2023-05-10T14:11:22;16.40;99.90
11087;DHT22;5597;47.588;9.642;2023-05-10T14:13:48;16.30;99.90
11087;DHT22;5597;47.588;9.642;2023-05-10T14:16:14;16.30;99.90
11087;DHT22;5597;47.588;9.642;2023-05-10T14:18:40;16.30;99.90
11087;DHT22;5597;47.588;9.642;2023-05-10T14:21:05;16.30;99.90
11087;DHT22;5597;47.588;9.642;2023-05-10T14:23:31;16.30;99.90
11087;DHT22;5597;47.588;9.642;2023-05-10T14:25:57;16.30;99.90
11087;DHT22;5597;47.588;9.642;2023-05-10T14:28:23;16.40;99.90
11087;DHT22;5597;47.588;9.642;2023-05-10T14:30:50;16.50;99.90
11087;DHT22;5597;47.588;9.642;2023-05-10T14:33:16;16.60;99.90
11087;DHT22;5597;47.588;9.642;2023-05-10T14:35:42;16.60;99.90
11087;DHT22;5597;47.588;9.642;2023-05-10T14:38:07;16.60;99.90
11087;DHT22;5597;47.588;9.642;2023-05-10T14:40:33;16.60;99.90
11087;DHT22;5597;47.588;9.642;2023-05-10T14:42:59;16.60;99.90
11087;DHT22;5597;47.588;9.642;2023-05-10T14:45:25;16.60;99.90
11087;DHT22;5597;47.588;9.642;2023-05-10T14:47:51;16.60;99.90
11087;DHT22;5597;47.588;9.642;2023-05-10T14:50:16;16.50;99.90
11087;DHT22;5597;47.588;9.642;2023-05-10T14:52:43;16.60;99.90
11087;DHT22;5597;47.588;9.642;2023-05-10T14:55:10;16.50;99.90
11087;DHT22;5597;47.588;9.642;2023-05-10T14:57:35;16.40;99.90
11087;DHT22;5597;47.588;9.642;2023-05-10T15:00:01;16.20;99.90
11087;DHT22;5597;47.588;9.642;2023-05-10T15:02:27;16.20;99.90
11087;DHT22;5597;47.588;9.642;2023-05-10T15:04:52;16.10;99.90
11087;DHT22;5597;47.588;9.642;2023-05-10T15:07:18;16.00;99.90
11087;DHT22;5597;47.588;9.642;2023-05-10T15:09:44;15.90;99.90
11087;DHT22;5597;47.588;9.642;2023-05-10T15:12:10;15.80;99.90
11087;DHT22;5597;47.588;9.642;2023-05-10T15:14:35;15.80;99.90
11087;DHT22;5597;47.588;9.642;2023-05-10T15:17:02;15.70;99.90
11087;DHT22;5597;47.588;9.642;2023-05-10T15:19:27;15.60;99.90
11087;DHT22;5597;47.588;9.642;2023-05-10T15:21:54;15.60;99.90
11087;DHT22;5597;47.588;9.642;2023-05-10T15:24:20;15.60;99.90
11087;DHT22;5597;47.588;9.642;2023-05-10T15:26:46;15.50;99.90
11087;DHT22;5597;47.588;9.642;2023-05-10T15:29:12;15.50;99.90
11087;DHT22;5597;47.588;9.642;2023-05-10T15:31:48;15.40;99.90
11087;DHT22;5597;47.588;9.642;2023-05-10T15:34:14;15.30;99.90
11087;DHT22;5597;47.588;9.642;2023-05-10T15:36:39;15.30;99.90
11087;DHT22;5597;47.588;9.642;2023-05-10T15:39:05;15.30;99.90
11087;DHT22;5597;47.588;9.642;2023-05-10T15:41:31;15.20;99.90
11087;DHT22;5597;47.588;9.642;2023-05-10T15:43:57;15.20;99.90
11087;DHT22;5597;47.588;9.642;2023-05-10T15:46:25;15.20;99.90
11087;DHT22;5597;47.588;9.642;2023-05-10T15:48:51;15.10;99.90
11087;DHT22;5597;47.588;9.642;2023-05-10T15:51:17;15.10;99.90
11087;DHT22;5597;47.588;9.642;2023-05-10T15:53:44;15.00;99.90
11087;DHT22;5597;47.588;9.642;2023-05-10T15:56:09;15.00;99.90
11087;DHT22;5597;47.588;9.642;2023-05-10T15:58:35;14.90;99.90
11087;DHT22;5597;47.588;9.642;2023-05-10T16:01:01;14.90;99.90
11087;DHT22;5597;47.588;9.642;2023-05-10T16:03:26;14.90;99.90
11087;DHT22;5597;47.588;9.642;2023-05-10T16:05:52;14.80;99.90
11087;DHT22;5597;47.588;9.642;2023-05-10T16:08:18;14.80;99.90
11087;DHT22;5597;47.588;9.642;2023-05-10T16:10:44;14.80;99.90